Resums METAR propers

 

KSJC - San Jose, California, USA
Distància des de l'estació: NE 14km
Actualització: 24/06/2018 04:53 UTC
Seré
Seré
 Vent del SE
Vent: SE 17 km/h
Temperatura: 22°C
Rosada: 12°C
Humitat: 53%
Baròmetre: 1008.1 hPa
Nuvolositat: Seré
Visibilitat: 16 km
2018/06/24 04:53 KSJC 240453Z 13009KT 10SM CLR 22/12 A2977 RMK AO2 SLP078 T02220117
KNUQ - Moffett Nas/Mtn, California, USA
Distància des de l'estació: N 14km
Actualització: 24/06/2018 04:56 UTC
Seré
Seré
 Vent del NE
Vent: NE 7 km/h
Temperatura: 21°C
Rosada: 13°C
Humitat: 60%
Baròmetre: 1008.1 hPa
Nuvolositat: Seré
Visibilitat: 16 km
2018/06/24 04:56 KNUQ 240456Z AUTO 05004KT 10SM CLR 21/13 A2977 RMK AO2 SLP082 T02060128
 
KPAO - Palo Alto, California, USA
Distància des de l'estació: NNO 23km
Actualització: 24/06/2018 03:47 UTC
NO actualitzat
Seré
Seré
 Vent del NO
Vent: NO 22 km/h
Temperatura: 21°C
Rosada: 13°C
Humitat: 60%
Baròmetre: 1006.8 hPa
Nuvolositat: Seré
Visibilitat: 16 km
2018/06/24 03:47 KPAO 240347Z 31012KT 10SM SKC 21/13 A2973 RMK LAST
KRHV - San Jose/Reid, California, USA
Distància des de l'estació: ENE 19km
Actualització: 24/06/2018 04:47 UTC
Seré
Seré
 Vent del SSO
Vent: SSO 17 km/h
Temperatura: 21°C
Rosada: 11°C
Humitat: 53%
Baròmetre: 1007.5 hPa
Nuvolositat: Seré
Visibilitat: 16 km
2018/06/24 04:47 KRHV 240447Z 20009KT 10SM SKC 21/11 A2975
 
KOAK - Oakland, California, USA
Distància des de l'estació: NNO 50km
Actualització: 24/06/2018 04:53 UTC
Seré
Seré
 Vent del NO
Vent: NO 7 km/h
Temperatura: 18°C
Rosada: 13°C
Humitat: 73%
Baròmetre: 1007.5 hPa
Nuvolositat: Seré
Visibilitat: 16 km
2018/06/24 04:53 KOAK 240453Z 31004KT 10SM CLR 18/13 A2975 RMK AO2 SLP075 T01780128
KSQL - San Carlos Airpo, California, USA
Distància des de l'estació: NO 34km
Actualització: 24/06/2018 05:00 UTC
Seré
Seré
 Vent del NO
Vent: NO 7 km/h
Temperatura: 21°C
Rosada: 10°C
Humitat: 50%
Baròmetre: 1007.8 hPa
Nuvolositat: Seré
Visibilitat: 16 km
2018/06/24 05:00 KSQL 240500Z AUTO 31004KT 10SM CLR 21/10 A2976 RMK AO2
 
KSFO - San Francisco, California, USA
Distància des de l'estació: NO 49km
Actualització: 24/06/2018 04:56 UTC
Seré
Seré
 Vent del O
Vent: O 9 km/h
Temperatura: 21°C
Rosada: 11°C
Humitat: 53%
Baròmetre: 1007.5 hPa
Nuvolositat: Seré
Visibilitat: 16 km
2018/06/24 04:56 KSFO 240456Z 28005KT 10SM CLR 21/11 A2975 RMK AO2 SLP074 T02060106
KE16 - San Martin, California, USA
Distància des de l'estació: ESE 43km
Actualització: 24/06/2018 04:50 UTC
Seré
Seré
 Vent del SE
Vent: SE 20 km/h
Temperatura: 14°C
Rosada: 11°C
Humitat: 82%
Baròmetre: 1010.2 hPa
Nuvolositat: Seré
Visibilitat: 16 km
2018/06/24 04:50 KE16 240450Z AUTO 14011KT 10SM CLR 14/11 A2983 RMK AO2
 
KWVI - Watsonville, California, USA
Distància des de l'estació: SSE 44km
Actualització: 24/06/2018 04:53 UTC
Mist, Tapat
Mist, Tapat
 Vent del OSO
Vent: OSO 7 km/h
Temperatura: 13°C
Rosada: 12°C
Humitat: 94%
Baròmetre: 1010.5 hPa
Resum: Mist
Nuvolositat: Tapat
Visibilitat: 10 km
Detalls nuvolositat: Tapat 244 m
2018/06/24 04:53 KWVI 240453Z AUTO 25004KT 6SM BR OVC008 13/12 A2984 RMK AO2 SLP104 T01330117 $
KHAF - Half Moon Bay, California, USA
Distància des de l'estació: ONO 50km
Actualització: 24/06/2018 05:00 UTC
Mist, Tapat
Mist, Tapat
 Vent del SE
Vent: SE 20 km/h
Temperatura: 13°C
Rosada: 12°C
Humitat: 94%
Baròmetre: 1009.8 hPa
Resum: Mist
Nuvolositat: Tapat
Visibilitat: 6 km
Detalls nuvolositat: Tapat 152 m
2018/06/24 05:00 KHAF 240500Z AUTO 14011KT 4SM BR OVC005 13/12 A2982 RMK AO2
 
KHWD - Hayward, California, USA
Distància des de l'estació: N 44km
Actualització: 24/06/2018 04:54 UTC
Seré
Seré
 Vent del NO
Vent: NO 9 km/h
Temperatura: 20°C
Rosada: 12°C
Humitat: 60%
Baròmetre: 1007.5 hPa
Nuvolositat: Seré
Visibilitat: 16 km
2018/06/24 04:54 KHWD 240454Z 31005KT 10SM CLR 20/12 A2975 RMK AO2 SLP082 T02000122
KLVK - Livermore, California, USA
Distància des de l'estació: NNE 51km
Actualització: 24/06/2018 04:53 UTC
Seré
Seré
 Vent del O
Vent: O 13 km/h
Temperatura: 26°C
Rosada: 7°C
Humitat: 30%
Baròmetre: 1006.8 hPa
Nuvolositat: Seré
Visibilitat: 16 km
2018/06/24 04:53 KLVK 240453Z 27007KT 10SM CLR 26/07 A2973 RMK AO2 SLP061 T02610072